sensor_id;sensor_type;location;lat;lon;timestamp;P1;durP1;ratioP1;P2;durP2;ratioP2
63817;SDS011;53093;55.092;73.476;2022-10-19T00:01:05;9.65;;;5.50;;
63817;SDS011;53093;55.092;73.476;2022-10-19T00:03:33;13.73;;;5.95;;
63817;SDS011;53093;55.092;73.476;2022-10-19T00:06:09;10.48;;;6.30;;
63817;SDS011;53093;55.092;73.476;2022-10-19T00:08:36;7.63;;;5.30;;
63817;SDS011;53093;55.092;73.476;2022-10-19T00:11:03;14.80;;;5.85;;
63817;SDS011;53093;55.092;73.476;2022-10-19T00:13:30;12.13;;;6.03;;
63817;SDS011;53093;55.092;73.476;2022-10-19T00:15:57;9.57;;;5.72;;
63817;SDS011;53093;55.092;73.476;2022-10-19T00:18:24;10.45;;;6.15;;
63817;SDS011;53093;55.092;73.476;2022-10-19T00:21:05;10.27;;;5.75;;
63817;SDS011;53093;55.092;73.476;2022-10-19T00:23:32;10.35;;;5.70;;
63817;SDS011;53093;55.092;73.476;2022-10-19T00:25:59;9.40;;;5.97;;
63817;SDS011;53093;55.092;73.476;2022-10-19T00:28:27;8.73;;;5.03;;
63817;SDS011;53093;55.092;73.476;2022-10-19T00:31:09;8.57;;;5.30;;
63817;SDS011;53093;55.092;73.476;2022-10-19T00:33:36;9.60;;;4.95;;
63817;SDS011;53093;55.092;73.476;2022-10-19T00:36:03;9.07;;;5.30;;
63817;SDS011;53093;55.092;73.476;2022-10-19T00:38:30;7.18;;;4.88;;
63817;SDS011;53093;55.092;73.476;2022-10-19T00:40:57;7.88;;;4.82;;
63817;SDS011;53093;55.092;73.476;2022-10-19T00:43:25;7.00;;;4.85;;
63817;SDS011;53093;55.092;73.476;2022-10-19T00:45:53;8.75;;;5.22;;
63817;SDS011;53093;55.092;73.476;2022-10-19T00:48:21;8.93;;;5.15;;
63817;SDS011;53093;55.092;73.476;2022-10-19T00:50:48;11.00;;;5.20;;
63817;SDS011;53093;55.092;73.476;2022-10-19T00:53:16;11.52;;;5.78;;
63817;SDS011;53093;55.092;73.476;2022-10-19T00:55:43;9.32;;;5.13;;
63817;SDS011;53093;55.092;73.476;2022-10-19T00:58:15;13.10;;;6.72;;
63817;SDS011;53093;55.092;73.476;2022-10-19T01:00:42;10.43;;;5.75;;
63817;SDS011;53093;55.092;73.476;2022-10-19T01:03:09;11.70;;;5.55;;
63817;SDS011;53093;55.092;73.476;2022-10-19T01:05:46;11.40;;;5.95;;
63817;SDS011;53093;55.092;73.476;2022-10-19T01:08:13;11.35;;;5.35;;
63817;SDS011;53093;55.092;73.476;2022-10-19T01:18:21;12.68;;;5.95;;
63817;SDS011;53093;55.092;73.476;2022-10-19T01:21:13;13.40;;;6.15;;
63817;SDS011;53093;55.092;73.476;2022-10-19T01:31:39;11.32;;;5.97;;
63817;SDS011;53093;55.092;73.476;2022-10-19T01:34:12;10.98;;;5.43;;
63817;SDS011;53093;55.092;73.476;2022-10-19T01:36:42;9.77;;;5.90;;
63817;SDS011;53093;55.092;73.476;2022-10-19T01:44:14;11.10;;;6.03;;
63817;SDS011;53093;55.092;73.476;2022-10-19T01:46:43;8.07;;;5.88;;
63817;SDS011;53093;55.092;73.476;2022-10-19T01:49:14;11.95;;;5.75;;
63817;SDS011;53093;55.092;73.476;2022-10-19T01:51:43;10.20;;;5.40;;
63817;SDS011;53093;55.092;73.476;2022-10-19T01:54:12;8.77;;;5.20;;
63817;SDS011;53093;55.092;73.476;2022-10-19T01:56:41;11.35;;;6.18;;
63817;SDS011;53093;55.092;73.476;2022-10-19T01:59:09;9.80;;;6.07;;
63817;SDS011;53093;55.092;73.476;2022-10-19T02:01:38;9.70;;;5.57;;
63817;SDS011;53093;55.092;73.476;2022-10-19T02:04:06;11.32;;;5.43;;
63817;SDS011;53093;55.092;73.476;2022-10-19T02:06:34;9.85;;;5.38;;
63817;SDS011;53093;55.092;73.476;2022-10-19T02:09:01;12.02;;;6.43;;
63817;SDS011;53093;55.092;73.476;2022-10-19T02:11:28;11.70;;;6.03;;
63817;SDS011;53093;55.092;73.476;2022-10-19T02:14:00;9.25;;;5.10;;
63817;SDS011;53093;55.092;73.476;2022-10-19T02:16:31;11.77;;;6.20;;
63817;SDS011;53093;55.092;73.476;2022-10-19T02:19:00;7.85;;;5.10;;
63817;SDS011;53093;55.092;73.476;2022-10-19T02:21:27;9.27;;;6.15;;
63817;SDS011;53093;55.092;73.476;2022-10-19T02:23:54;10.60;;;5.88;;
63817;SDS011;53093;55.092;73.476;2022-10-19T02:26:21;12.68;;;6.43;;
63817;SDS011;53093;55.092;73.476;2022-10-19T02:28:48;9.63;;;5.85;;
63817;SDS011;53093;55.092;73.476;2022-10-19T02:31:16;11.95;;;7.03;;
63817;SDS011;53093;55.092;73.476;2022-10-19T02:33:43;11.88;;;6.55;;
63817;SDS011;53093;55.092;73.476;2022-10-19T02:36:10;13.75;;;7.15;;
63817;SDS011;53093;55.092;73.476;2022-10-19T02:41:33;13.73;;;6.90;;
63817;SDS011;53093;55.092;73.476;2022-10-19T02:44:08;15.52;;;7.95;;
63817;SDS011;53093;55.092;73.476;2022-10-19T02:46:51;12.90;;;7.03;;
63817;SDS011;53093;55.092;73.476;2022-10-19T02:49:20;10.98;;;6.63;;
63817;SDS011;53093;55.092;73.476;2022-10-19T02:51:55;12.68;;;6.38;;
63817;SDS011;53093;55.092;73.476;2022-10-19T02:54:23;12.10;;;6.43;;
63817;SDS011;53093;55.092;73.476;2022-10-19T02:56:50;12.63;;;6.63;;
63817;SDS011;53093;55.092;73.476;2022-10-19T02:59:17;13.07;;;5.90;;
63817;SDS011;53093;55.092;73.476;2022-10-19T03:01:44;13.18;;;6.20;;
63817;SDS011;53093;55.092;73.476;2022-10-19T03:04:21;13.65;;;5.55;;
63817;SDS011;53093;55.092;73.476;2022-10-19T03:06:48;12.82;;;6.30;;
63817;SDS011;53093;55.092;73.476;2022-10-19T03:09:15;12.75;;;6.38;;
63817;SDS011;53093;55.092;73.476;2022-10-19T03:11:42;11.15;;;7.32;;
63817;SDS011;53093;55.092;73.476;2022-10-19T03:14:09;12.80;;;7.13;;
63817;SDS011;53093;55.092;73.476;2022-10-19T03:16:36;11.93;;;6.45;;
63817;SDS011;53093;55.092;73.476;2022-10-19T03:19:13;10.43;;;6.90;;
63817;SDS011;53093;55.092;73.476;2022-10-19T03:21:40;12.20;;;7.45;;
63817;SDS011;53093;55.092;73.476;2022-10-19T03:24:07;13.65;;;7.28;;
63817;SDS011;53093;55.092;73.476;2022-10-19T03:26:34;12.38;;;7.68;;
63817;SDS011;53093;55.092;73.476;2022-10-19T03:29:01;12.18;;;7.20;;
63817;SDS011;53093;55.092;73.476;2022-10-19T03:31:27;13.95;;;8.43;;
63817;SDS011;53093;55.092;73.476;2022-10-19T03:33:54;14.90;;;8.02;;
63817;SDS011;53093;55.092;73.476;2022-10-19T03:38:49;13.88;;;8.52;;
63817;SDS011;53093;55.092;73.476;2022-10-19T03:41:16;16.67;;;7.85;;
63817;SDS011;53093;55.092;73.476;2022-10-19T03:43:43;14.18;;;7.72;;
63817;SDS011;53093;55.092;73.476;2022-10-19T03:46:10;15.48;;;8.30;;
63817;SDS011;53093;55.092;73.476;2022-10-19T03:48:42;13.48;;;8.85;;
63817;SDS011;53093;55.092;73.476;2022-10-19T03:51:10;13.27;;;9.25;;
63817;SDS011;53093;55.092;73.476;2022-10-19T03:53:39;15.52;;;10.07;;
63817;SDS011;53093;55.092;73.476;2022-10-19T03:56:16;22.70;;;15.20;;
63817;SDS011;53093;55.092;73.476;2022-10-19T03:58:53;17.23;;;10.18;;
63817;SDS011;53093;55.092;73.476;2022-10-19T04:01:22;16.38;;;10.88;;
63817;SDS011;53093;55.092;73.476;2022-10-19T04:03:56;21.90;;;12.10;;
63817;SDS011;53093;55.092;73.476;2022-10-19T04:06:28;14.95;;;9.43;;
63817;SDS011;53093;55.092;73.476;2022-10-19T04:08:55;17.10;;;9.68;;
63817;SDS011;53093;55.092;73.476;2022-10-19T04:11:23;14.63;;;9.32;;
63817;SDS011;53093;55.092;73.476;2022-10-19T04:13:51;13.68;;;8.40;;
63817;SDS011;53093;55.092;73.476;2022-10-19T04:16:29;14.38;;;9.20;;
63817;SDS011;53093;55.092;73.476;2022-10-19T04:18:56;13.20;;;8.90;;
63817;SDS011;53093;55.092;73.476;2022-10-19T04:21:25;13.85;;;9.23;;
63817;SDS011;53093;55.092;73.476;2022-10-19T04:23:53;14.43;;;9.07;;
63817;SDS011;53093;55.092;73.476;2022-10-19T04:26:20;17.55;;;9.05;;
63817;SDS011;53093;55.092;73.476;2022-10-19T04:28:47;16.73;;;9.65;;
63817;SDS011;53093;55.092;73.476;2022-10-19T04:31:19;13.23;;;8.90;;
63817;SDS011;53093;55.092;73.476;2022-10-19T04:33:46;15.85;;;10.20;;
63817;SDS011;53093;55.092;73.476;2022-10-19T04:36:17;15.57;;;9.77;;
63817;SDS011;53093;55.092;73.476;2022-10-19T04:38:44;14.02;;;8.73;;
63817;SDS011;53093;55.092;73.476;2022-10-19T04:41:11;13.32;;;9.85;;
63817;SDS011;53093;55.092;73.476;2022-10-19T04:43:39;16.38;;;9.75;;
63817;SDS011;53093;55.092;73.476;2022-10-19T04:46:07;12.27;;;9.18;;
63817;SDS011;53093;55.092;73.476;2022-10-19T04:48:34;15.88;;;10.95;;
63817;SDS011;53093;55.092;73.476;2022-10-19T04:51:07;14.75;;;9.43;;
63817;SDS011;53093;55.092;73.476;2022-10-19T04:53:43;15.15;;;8.50;;
63817;SDS011;53093;55.092;73.476;2022-10-19T04:56:21;15.07;;;8.27;;
63817;SDS011;53093;55.092;73.476;2022-10-19T04:58:48;11.70;;;7.72;;
63817;SDS011;53093;55.092;73.476;2022-10-19T05:01:16;16.00;;;7.72;;
63817;SDS011;53093;55.092;73.476;2022-10-19T05:03:59;11.07;;;6.50;;
63817;SDS011;53093;55.092;73.476;2022-10-19T05:06:26;10.13;;;6.72;;
63817;SDS011;53093;55.092;73.476;2022-10-19T05:08:53;14.43;;;6.93;;
63817;SDS011;53093;55.092;73.476;2022-10-19T05:11:21;11.93;;;7.28;;
63817;SDS011;53093;55.092;73.476;2022-10-19T05:13:51;13.13;;;6.32;;
63817;SDS011;53093;55.092;73.476;2022-10-19T05:16:19;14.32;;;6.47;;
63817;SDS011;53093;55.092;73.476;2022-10-19T05:18:50;12.02;;;5.80;;
63817;SDS011;53093;55.092;73.476;2022-10-19T05:21:17;9.77;;;6.30;;
63817;SDS011;53093;55.092;73.476;2022-10-19T05:23:51;12.50;;;6.85;;
63817;SDS011;53093;55.092;73.476;2022-10-19T05:26:19;10.18;;;7.05;;
63817;SDS011;53093;55.092;73.476;2022-10-19T05:28:53;11.60;;;7.05;;
63817;SDS011;53093;55.092;73.476;2022-10-19T05:31:25;10.88;;;6.20;;
63817;SDS011;53093;55.092;73.476;2022-10-19T05:33:53;10.65;;;5.85;;
63817;SDS011;53093;55.092;73.476;2022-10-19T05:36:22;7.30;;;5.70;;
63817;SDS011;53093;55.092;73.476;2022-10-19T05:38:52;10.52;;;6.20;;
63817;SDS011;53093;55.092;73.476;2022-10-19T05:41:19;13.25;;;6.75;;
63817;SDS011;53093;55.092;73.476;2022-10-19T05:43:50;8.93;;;5.72;;
63817;SDS011;53093;55.092;73.476;2022-10-19T05:46:18;8.23;;;5.68;;
63817;SDS011;53093;55.092;73.476;2022-10-19T05:48:45;10.27;;;6.38;;
63817;SDS011;53093;55.092;73.476;2022-10-19T05:51:13;12.65;;;5.97;;
63817;SDS011;53093;55.092;73.476;2022-10-19T05:53:46;12.95;;;6.78;;
63817;SDS011;53093;55.092;73.476;2022-10-19T05:56:18;11.13;;;6.40;;
63817;SDS011;53093;55.092;73.476;2022-10-19T05:58:45;9.55;;;6.20;;
63817;SDS011;53093;55.092;73.476;2022-10-19T06:01:22;9.13;;;6.68;;
63817;SDS011;53093;55.092;73.476;2022-10-19T06:03:50;9.50;;;6.25;;
63817;SDS011;53093;55.092;73.476;2022-10-19T06:06:17;12.43;;;6.45;;
63817;SDS011;53093;55.092;73.476;2022-10-19T06:08:47;9.52;;;6.97;;
63817;SDS011;53093;55.092;73.476;2022-10-19T06:11:15;9.27;;;7.40;;
63817;SDS011;53093;55.092;73.476;2022-10-19T06:13:47;10.20;;;6.60;;
63817;SDS011;53093;55.092;73.476;2022-10-19T06:16:17;10.73;;;6.55;;
63817;SDS011;53093;55.092;73.476;2022-10-19T06:18:44;9.20;;;6.47;;
63817;SDS011;53093;55.092;73.476;2022-10-19T06:21:17;10.32;;;6.53;;
63817;SDS011;53093;55.092;73.476;2022-10-19T06:23:48;12.38;;;6.50;;
63817;SDS011;53093;55.092;73.476;2022-10-19T06:26:15;10.27;;;6.95;;
63817;SDS011;53093;55.092;73.476;2022-10-19T06:28:42;11.77;;;7.43;;
63817;SDS011;53093;55.092;73.476;2022-10-19T06:31:10;13.27;;;7.22;;
63817;SDS011;53093;55.092;73.476;2022-10-19T06:33:38;12.40;;;6.45;;
63817;SDS011;53093;55.092;73.476;2022-10-19T06:38:33;9.45;;;6.00;;
63817;SDS011;53093;55.092;73.476;2022-10-19T06:41:00;12.50;;;6.00;;
63817;SDS011;53093;55.092;73.476;2022-10-19T06:43:27;10.45;;;6.28;;
63817;SDS011;53093;55.092;73.476;2022-10-19T06:45:58;9.38;;;6.13;;
63817;SDS011;53093;55.092;73.476;2022-10-19T06:48:29;10.70;;;6.28;;
63817;SDS011;53093;55.092;73.476;2022-10-19T06:50:56;8.10;;;6.10;;
63817;SDS011;53093;55.092;73.476;2022-10-19T06:53:24;10.55;;;6.13;;
63817;SDS011;53093;55.092;73.476;2022-10-19T06:55:51;7.13;;;5.60;;
63817;SDS011;53093;55.092;73.476;2022-10-19T06:58:18;6.47;;;5.15;;
63817;SDS011;53093;55.092;73.476;2022-10-19T07:00:45;9.25;;;4.97;;
63817;SDS011;53093;55.092;73.476;2022-10-19T07:03:19;6.03;;;4.70;;
63817;SDS011;53093;55.092;73.476;2022-10-19T07:05:51;8.07;;;4.93;;
63817;SDS011;53093;55.092;73.476;2022-10-19T07:08:18;6.03;;;4.88;;
63817;SDS011;53093;55.092;73.476;2022-10-19T07:10:48;5.55;;;4.97;;
63817;SDS011;53093;55.092;73.476;2022-10-19T07:13:15;9.43;;;5.18;;
63817;SDS011;53093;55.092;73.476;2022-10-19T07:15:42;7.63;;;4.93;;
63817;SDS011;53093;55.092;73.476;2022-10-19T07:18:14;5.95;;;4.65;;
63817;SDS011;53093;55.092;73.476;2022-10-19T07:20:41;6.63;;;4.47;;
63817;SDS011;53093;55.092;73.476;2022-10-19T07:25:43;9.00;;;5.25;;
63817;SDS011;53093;55.092;73.476;2022-10-19T07:28:10;13.50;;;9.65;;
63817;SDS011;53093;55.092;73.476;2022-10-19T07:30:47;10.65;;;7.05;;
63817;SDS011;53093;55.092;73.476;2022-10-19T07:33:14;13.75;;;8.15;;
63817;SDS011;53093;55.092;73.476;2022-10-19T07:35:41;9.55;;;6.32;;
63817;SDS011;53093;55.092;73.476;2022-10-19T07:38:08;7.78;;;5.72;;
63817;SDS011;53093;55.092;73.476;2022-10-19T07:40:35;7.25;;;5.25;;
63817;SDS011;53093;55.092;73.476;2022-10-19T07:43:02;11.43;;;7.63;;
63817;SDS011;53093;55.092;73.476;2022-10-19T07:45:30;11.63;;;6.88;;
63817;SDS011;53093;55.092;73.476;2022-10-19T07:47:57;7.85;;;6.15;;
63817;SDS011;53093;55.092;73.476;2022-10-19T07:50:25;9.50;;;5.82;;
63817;SDS011;53093;55.092;73.476;2022-10-19T07:52:54;8.77;;;6.10;;
63817;SDS011;53093;55.092;73.476;2022-10-19T07:55:21;8.93;;;5.03;;
63817;SDS011;53093;55.092;73.476;2022-10-19T07:57:48;5.50;;;4.38;;
63817;SDS011;53093;55.092;73.476;2022-10-19T08:00:15;7.68;;;4.47;;
63817;SDS011;53093;55.092;73.476;2022-10-19T08:02:48;6.55;;;4.70;;
63817;SDS011;53093;55.092;73.476;2022-10-19T08:05:16;6.05;;;4.72;;
63817;SDS011;53093;55.092;73.476;2022-10-19T08:07:42;10.95;;;4.90;;
63817;SDS011;53093;55.092;73.476;2022-10-19T08:10:11;7.43;;;4.70;;
63817;SDS011;53093;55.092;73.476;2022-10-19T08:12:38;8.32;;;4.85;;
63817;SDS011;53093;55.092;73.476;2022-10-19T08:15:19;7.60;;;4.70;;
63817;SDS011;53093;55.092;73.476;2022-10-19T08:17:47;6.68;;;5.00;;
63817;SDS011;53093;55.092;73.476;2022-10-19T08:20:15;9.80;;;5.40;;
63817;SDS011;53093;55.092;73.476;2022-10-19T08:22:43;7.40;;;4.45;;
63817;SDS011;53093;55.092;73.476;2022-10-19T08:25:10;8.52;;;4.53;;
63817;SDS011;53093;55.092;73.476;2022-10-19T08:27:37;5.05;;;4.10;;
63817;SDS011;53093;55.092;73.476;2022-10-19T08:30:04;5.10;;;4.05;;
63817;SDS011;53093;55.092;73.476;2022-10-19T08:32:31;6.28;;;4.65;;
63817;SDS011;53093;55.092;73.476;2022-10-19T08:34:58;6.13;;;4.10;;
63817;SDS011;53093;55.092;73.476;2022-10-19T08:37:25;5.93;;;4.20;;
63817;SDS011;53093;55.092;73.476;2022-10-19T08:39:52;5.95;;;4.10;;
63817;SDS011;53093;55.092;73.476;2022-10-19T08:42:22;6.53;;;4.07;;
63817;SDS011;53093;55.092;73.476;2022-10-19T08:50:06;6.07;;;4.00;;
63817;SDS011;53093;55.092;73.476;2022-10-19T08:52:40;4.03;;;3.55;;
63817;SDS011;53093;55.092;73.476;2022-10-19T08:55:09;4.97;;;4.13;;
63817;SDS011;53093;55.092;73.476;2022-10-19T08:58:26;6.60;;;3.63;;
63817;SDS011;53093;55.092;73.476;2022-10-19T09:00:43;4.50;;;3.90;;
63817;SDS011;53093;55.092;73.476;2022-10-19T09:05:52;8.30;;;4.32;;
63817;SDS011;53093;55.092;73.476;2022-10-19T09:08:23;5.28;;;4.10;;
63817;SDS011;53093;55.092;73.476;2022-10-19T09:10:50;9.32;;;4.50;;
63817;SDS011;53093;55.092;73.476;2022-10-19T09:18:32;7.72;;;4.47;;
63817;SDS011;53093;55.092;73.476;2022-10-19T09:23:39;5.50;;;4.10;;
63817;SDS011;53093;55.092;73.476;2022-10-19T09:26:16;8.15;;;4.30;;
63817;SDS011;53093;55.092;73.476;2022-10-19T09:31:46;10.05;;;4.90;;
63817;SDS011;53093;55.092;73.476;2022-10-19T09:37:00;8.32;;;4.40;;
63817;SDS011;53093;55.092;73.476;2022-10-19T09:39:28;8.23;;;4.72;;
63817;SDS011;53093;55.092;73.476;2022-10-19T09:41:59;5.75;;;4.30;;
63817;SDS011;53093;55.092;73.476;2022-10-19T09:44:30;7.72;;;4.20;;
63817;SDS011;53093;55.092;73.476;2022-10-19T09:47:02;4.47;;;3.83;;
63817;SDS011;53093;55.092;73.476;2022-10-19T09:49:40;6.47;;;3.88;;
63817;SDS011;53093;55.092;73.476;2022-10-19T09:52:27;6.78;;;4.30;;
63817;SDS011;53093;55.092;73.476;2022-10-19T09:57:31;7.40;;;4.50;;
63817;SDS011;53093;55.092;73.476;2022-10-19T09:59:58;8.35;;;4.30;;
63817;SDS011;53093;55.092;73.476;2022-10-19T10:02:31;9.43;;;4.78;;
63817;SDS011;53093;55.092;73.476;2022-10-19T10:05:03;5.63;;;3.70;;
63817;SDS011;53093;55.092;73.476;2022-10-19T10:07:36;6.65;;;3.95;;
63817;SDS011;53093;55.092;73.476;2022-10-19T10:10:20;7.03;;;4.25;;
63817;SDS011;53093;55.092;73.476;2022-10-19T10:12:59;6.28;;;4.22;;
63817;SDS011;53093;55.092;73.476;2022-10-19T10:18:03;8.77;;;4.60;;
63817;SDS011;53093;55.092;73.476;2022-10-19T10:20:35;9.65;;;4.40;;
63817;SDS011;53093;55.092;73.476;2022-10-19T10:23:03;6.18;;;4.50;;
63817;SDS011;53093;55.092;73.476;2022-10-19T10:25:33;8.25;;;5.00;;
63817;SDS011;53093;55.092;73.476;2022-10-19T10:28:18;8.63;;;5.20;;
63817;SDS011;53093;55.092;73.476;2022-10-19T10:30:46;18.45;;;6.95;;
63817;SDS011;53093;55.092;73.476;2022-10-19T10:33:17;8.18;;;4.97;;
63817;SDS011;53093;55.092;73.476;2022-10-19T10:36:00;10.27;;;5.35;;
63817;SDS011;53093;55.092;73.476;2022-10-19T10:38:49;8.10;;;5.47;;
63817;SDS011;53093;55.092;73.476;2022-10-19T10:41:15;7.70;;;4.88;;
63817;SDS011;53093;55.092;73.476;2022-10-19T10:44:02;8.52;;;5.28;;
63817;SDS011;53093;55.092;73.476;2022-10-19T10:46:36;8.23;;;5.70;;
63817;SDS011;53093;55.092;73.476;2022-10-19T10:49:06;9.38;;;5.43;;
63817;SDS011;53093;55.092;73.476;2022-10-19T10:51:37;8.13;;;5.47;;
63817;SDS011;53093;55.092;73.476;2022-10-19T11:04:37;9.77;;;4.95;;
63817;SDS011;53093;55.092;73.476;2022-10-19T11:07:13;8.77;;;5.70;;
63817;SDS011;53093;55.092;73.476;2022-10-19T11:09:43;5.80;;;4.70;;
63817;SDS011;53093;55.092;73.476;2022-10-19T11:12:12;13.20;;;5.53;;
63817;SDS011;53093;55.092;73.476;2022-10-19T11:17:26;7.20;;;5.00;;
63817;SDS011;53093;55.092;73.476;2022-10-19T11:19:54;5.95;;;4.55;;
63817;SDS011;53093;55.092;73.476;2022-10-19T11:27:56;6.18;;;5.57;;
63817;SDS011;53093;55.092;73.476;2022-10-19T11:30:23;7.65;;;5.65;;
63817;SDS011;53093;55.092;73.476;2022-10-19T11:32:56;9.48;;;6.07;;
63817;SDS011;53093;55.092;73.476;2022-10-19T11:35:29;9.02;;;5.70;;
63817;SDS011;53093;55.092;73.476;2022-10-19T11:43:19;10.07;;;7.65;;
63817;SDS011;53093;55.092;73.476;2022-10-19T11:48:40;8.68;;;6.05;;
63817;SDS011;53093;55.092;73.476;2022-10-19T11:51:29;8.50;;;6.05;;
63817;SDS011;53093;55.092;73.476;2022-10-19T11:54:11;11.20;;;5.90;;
63817;SDS011;53093;55.092;73.476;2022-10-19T11:56:43;9.40;;;6.30;;
63817;SDS011;53093;55.092;73.476;2022-10-19T12:04:41;6.45;;;4.80;;
63817;SDS011;53093;55.092;73.476;2022-10-19T12:12:21;7.45;;;4.63;;
63817;SDS011;53093;55.092;73.476;2022-10-19T12:14:50;8.40;;;5.13;;
63817;SDS011;53093;55.092;73.476;2022-10-19T12:17:29;8.20;;;5.97;;
63817;SDS011;53093;55.092;73.476;2022-10-19T12:19:59;8.80;;;5.65;;
63817;SDS011;53093;55.092;73.476;2022-10-19T12:22:28;11.63;;;6.43;;
63817;SDS011;53093;55.092;73.476;2022-10-19T12:25:00;8.27;;;5.88;;
63817;SDS011;53093;55.092;73.476;2022-10-19T12:27:36;9.40;;;6.28;;
63817;SDS011;53093;55.092;73.476;2022-10-19T12:30:05;9.68;;;5.75;;
63817;SDS011;53093;55.092;73.476;2022-10-19T12:32:38;8.80;;;5.30;;
63817;SDS011;53093;55.092;73.476;2022-10-19T12:35:24;6.97;;;4.83;;
63817;SDS011;53093;55.092;73.476;2022-10-19T12:38:28;7.15;;;4.82;;
63817;SDS011;53093;55.092;73.476;2022-10-19T12:40:46;6.88;;;4.80;;
63817;SDS011;53093;55.092;73.476;2022-10-19T12:46:37;6.63;;;4.60;;
63817;SDS011;53093;55.092;73.476;2022-10-19T12:51:52;8.83;;;5.47;;
63817;SDS011;53093;55.092;73.476;2022-10-19T12:54:33;10.60;;;5.55;;
63817;SDS011;53093;55.092;73.476;2022-10-19T12:57:02;7.85;;;5.25;;
63817;SDS011;53093;55.092;73.476;2022-10-19T12:59:33;11.32;;;5.13;;
63817;SDS011;53093;55.092;73.476;2022-10-19T13:02:01;10.00;;;6.22;;
63817;SDS011;53093;55.092;73.476;2022-10-19T13:04:29;5.90;;;4.85;;
63817;SDS011;53093;55.092;73.476;2022-10-19T13:07:05;5.05;;;4.40;;
63817;SDS011;53093;55.092;73.476;2022-10-19T13:09:42;9.93;;;4.80;;
63817;SDS011;53093;55.092;73.476;2022-10-19T13:22:46;8.43;;;5.80;;
63817;SDS011;53093;55.092;73.476;2022-10-19T13:25:33;8.38;;;6.28;;
63817;SDS011;53093;55.092;73.476;2022-10-19T13:46:19;8.45;;;7.45;;
63817;SDS011;53093;55.092;73.476;2022-10-19T14:02:07;11.00;;;7.40;;
63817;SDS011;53093;55.092;73.476;2022-10-19T14:07:19;10.07;;;8.48;;
63817;SDS011;53093;55.092;73.476;2022-10-19T14:12:25;11.70;;;7.88;;
63817;SDS011;53093;55.092;73.476;2022-10-19T14:14:58;10.40;;;7.97;;
63817;SDS011;53093;55.092;73.476;2022-10-19T14:17:31;9.40;;;7.97;;
63817;SDS011;53093;55.092;73.476;2022-10-19T14:19:59;9.75;;;8.57;;
63817;SDS011;53093;55.092;73.476;2022-10-19T14:25:18;10.07;;;7.68;;
63817;SDS011;53093;55.092;73.476;2022-10-19T14:27:45;14.98;;;7.47;;
63817;SDS011;53093;55.092;73.476;2022-10-19T14:30:22;8.57;;;7.72;;
63817;SDS011;53093;55.092;73.476;2022-10-19T14:32:50;10.10;;;8.07;;
63817;SDS011;53093;55.092;73.476;2022-10-19T14:35:21;9.77;;;8.13;;
63817;SDS011;53093;55.092;73.476;2022-10-19T14:37:49;11.90;;;8.55;;
63817;SDS011;53093;55.092;73.476;2022-10-19T14:40:24;10.45;;;8.38;;
63817;SDS011;53093;55.092;73.476;2022-10-19T14:42:51;10.27;;;7.97;;
63817;SDS011;53093;55.092;73.476;2022-10-19T14:45:27;10.02;;;7.68;;
63817;SDS011;53093;55.092;73.476;2022-10-19T14:47:55;10.77;;;8.00;;
63817;SDS011;53093;55.092;73.476;2022-10-19T14:50:43;9.30;;;7.70;;
63817;SDS011;53093;55.092;73.476;2022-10-19T14:55:57;11.43;;;9.20;;
63817;SDS011;53093;55.092;73.476;2022-10-19T14:58:26;12.55;;;8.30;;
63817;SDS011;53093;55.092;73.476;2022-10-19T15:01:06;10.82;;;8.57;;
63817;SDS011;53093;55.092;73.476;2022-10-19T15:03:43;9.70;;;8.00;;
63817;SDS011;53093;55.092;73.476;2022-10-19T15:06:30;10.85;;;8.10;;
63817;SDS011;53093;55.092;73.476;2022-10-19T15:08:59;10.93;;;8.50;;
63817;SDS011;53093;55.092;73.476;2022-10-19T15:11:38;13.82;;;10.20;;
63817;SDS011;53093;55.092;73.476;2022-10-19T15:19:05;10.40;;;8.98;;
63817;SDS011;53093;55.092;73.476;2022-10-19T15:21:37;12.48;;;9.07;;
63817;SDS011;53093;55.092;73.476;2022-10-19T15:24:20;10.77;;;9.65;;
63817;SDS011;53093;55.092;73.476;2022-10-19T15:26:49;13.57;;;9.40;;
63817;SDS011;53093;55.092;73.476;2022-10-19T15:29:21;11.65;;;10.02;;
63817;SDS011;53093;55.092;73.476;2022-10-19T15:31:49;10.55;;;9.23;;
63817;SDS011;53093;55.092;73.476;2022-10-19T15:34:20;13.68;;;9.77;;
63817;SDS011;53093;55.092;73.476;2022-10-19T15:36:55;13.38;;;10.35;;
63817;SDS011;53093;55.092;73.476;2022-10-19T15:39:22;13.77;;;9.57;;
63817;SDS011;53093;55.092;73.476;2022-10-19T15:41:52;13.55;;;10.35;;
63817;SDS011;53093;55.092;73.476;2022-10-19T15:44:30;13.10;;;10.27;;
63817;SDS011;53093;55.092;73.476;2022-10-19T15:47:13;16.05;;;11.32;;
63817;SDS011;53093;55.092;73.476;2022-10-19T15:49:57;16.10;;;10.93;;
63817;SDS011;53093;55.092;73.476;2022-10-19T15:52:25;13.77;;;11.40;;
63817;SDS011;53093;55.092;73.476;2022-10-19T15:54:53;16.63;;;11.25;;
63817;SDS011;53093;55.092;73.476;2022-10-19T15:57:34;13.40;;;10.93;;
63817;SDS011;53093;55.092;73.476;2022-10-19T16:00:09;17.27;;;12.65;;
63817;SDS011;53093;55.092;73.476;2022-10-19T16:02:38;14.82;;;12.20;;
63817;SDS011;53093;55.092;73.476;2022-10-19T16:05:05;12.52;;;11.23;;
63817;SDS011;53093;55.092;73.476;2022-10-19T16:07:41;14.82;;;11.13;;
63817;SDS011;53093;55.092;73.476;2022-10-19T16:10:18;14.63;;;12.30;;
63817;SDS011;53093;55.092;73.476;2022-10-19T16:12:46;14.45;;;11.43;;
63817;SDS011;53093;55.092;73.476;2022-10-19T16:15:13;16.00;;;11.55;;
63817;SDS011;53093;55.092;73.476;2022-10-19T16:17:43;13.93;;;10.80;;
63817;SDS011;53093;55.092;73.476;2022-10-19T16:20:22;14.82;;;11.98;;
63817;SDS011;53093;55.092;73.476;2022-10-19T16:22:49;15.07;;;11.15;;
63817;SDS011;53093;55.092;73.476;2022-10-19T16:25:21;14.60;;;11.75;;
63817;SDS011;53093;55.092;73.476;2022-10-19T16:27:48;14.20;;;11.95;;
63817;SDS011;53093;55.092;73.476;2022-10-19T16:30:15;17.02;;;13.23;;
63817;SDS011;53093;55.092;73.476;2022-10-19T16:32:42;16.65;;;12.02;;
63817;SDS011;53093;55.092;73.476;2022-10-19T16:35:09;18.38;;;13.40;;
63817;SDS011;53093;55.092;73.476;2022-10-19T16:37:37;18.13;;;12.88;;
63817;SDS011;53093;55.092;73.476;2022-10-19T16:40:09;17.83;;;12.43;;
63817;SDS011;53093;55.092;73.476;2022-10-19T16:42:36;14.35;;;11.90;;
63817;SDS011;53093;55.092;73.476;2022-10-19T16:45:03;14.63;;;12.10;;
63817;SDS011;53093;55.092;73.476;2022-10-19T16:47:40;15.27;;;12.43;;
63817;SDS011;53093;55.092;73.476;2022-10-19T16:50:07;14.35;;;12.35;;
63817;SDS011;53093;55.092;73.476;2022-10-19T16:52:34;14.85;;;12.00;;
63817;SDS011;53093;55.092;73.476;2022-10-19T16:55:01;13.23;;;11.77;;
63817;SDS011;53093;55.092;73.476;2022-10-19T16:57:27;13.57;;;12.18;;
63817;SDS011;53093;55.092;73.476;2022-10-19T16:59:54;13.07;;;10.27;;
63817;SDS011;53093;55.092;73.476;2022-10-19T17:02:21;11.20;;;9.98;;
63817;SDS011;53093;55.092;73.476;2022-10-19T17:04:48;15.75;;;12.98;;
63817;SDS011;53093;55.092;73.476;2022-10-19T17:07:15;18.63;;;13.48;;
63817;SDS011;53093;55.092;73.476;2022-10-19T17:09:43;19.33;;;14.48;;
63817;SDS011;53093;55.092;73.476;2022-10-19T17:12:10;18.58;;;13.50;;
63817;SDS011;53093;55.092;73.476;2022-10-19T17:14:37;14.93;;;11.73;;
63817;SDS011;53093;55.092;73.476;2022-10-19T17:17:05;17.77;;;12.13;;
63817;SDS011;53093;55.092;73.476;2022-10-19T17:19:36;13.23;;;11.73;;
63817;SDS011;53093;55.092;73.476;2022-10-19T17:22:09;11.32;;;10.13;;
63817;SDS011;53093;55.092;73.476;2022-10-19T17:24:35;10.73;;;9.63;;